sensor_id;sensor_type;location;lat;lon;timestamp;pressure;altitude;pressure_sealevel;temperature;humidity
72110;BME280;59983;52.010;5.420;2023-03-15T00:01:12;101212.50;;;2.63;100.00
72110;BME280;59983;52.010;5.420;2023-03-15T00:03:44;101200.44;;;2.65;100.00
72110;BME280;59983;52.010;5.420;2023-03-15T00:06:11;101200.47;;;2.60;100.00
72110;BME280;59983;52.010;5.420;2023-03-15T00:08:38;101206.41;;;2.57;100.00
72110;BME280;59983;52.010;5.420;2023-03-15T00:11:05;101199.72;;;2.54;100.00
72110;BME280;59983;52.010;5.420;2023-03-15T00:13:32;101214.47;;;2.52;100.00
72110;BME280;59983;52.010;5.420;2023-03-15T00:16:00;101215.84;;;2.49;100.00
72110;BME280;59983;52.010;5.420;2023-03-15T00:18:28;101217.16;;;2.52;100.00
72110;BME280;59983;52.010;5.420;2023-03-15T00:20:55;101215.78;;;2.54;100.00
72110;BME280;59983;52.010;5.420;2023-03-15T00:23:22;101208.03;;;2.53;100.00
72110;BME280;59983;52.010;5.420;2023-03-15T00:25:50;101214.94;;;2.59;100.00
72110;BME280;59983;52.010;5.420;2023-03-15T00:28:17;101211.78;;;2.52;100.00
72110;BME280;59983;52.010;5.420;2023-03-15T00:30:43;101220.41;;;2.49;100.00
72110;BME280;59983;52.010;5.420;2023-03-15T00:33:12;101223.06;;;2.49;100.00
72110;BME280;59983;52.010;5.420;2023-03-15T00:35:41;101205.41;;;2.48;100.00
72110;BME280;59983;52.010;5.420;2023-03-15T00:38:08;101215.84;;;2.49;100.00
72110;BME280;59983;52.010;5.420;2023-03-15T00:40:36;101202.44;;;2.49;100.00
72110;BME280;59983;52.010;5.420;2023-03-15T00:43:03;101206.47;;;2.47;100.00
72110;BME280;59983;52.010;5.420;2023-03-15T00:45:30;101209.50;;;2.40;100.00
72110;BME280;59983;52.010;5.420;2023-03-15T00:47:56;101208.63;;;2.45;100.00
72110;BME280;59983;52.010;5.420;2023-03-15T00:50:23;101222.34;;;2.38;100.00
72110;BME280;59983;52.010;5.420;2023-03-15T00:52:50;101222.09;;;2.35;100.00
72110;BME280;59983;52.010;5.420;2023-03-15T00:55:17;101228.31;;;2.30;100.00
72110;BME280;59983;52.010;5.420;2023-03-15T00:57:45;101238.75;;;2.32;100.00
72110;BME280;59983;52.010;5.420;2023-03-15T01:00:18;101243.31;;;2.26;100.00
72110;BME280;59983;52.010;5.420;2023-03-15T01:02:51;101236.66;;;2.23;100.00
72110;BME280;59983;52.010;5.420;2023-03-15T01:05:18;101240.13;;;2.24;100.00
72110;BME280;59983;52.010;5.420;2023-03-15T01:07:44;101237.75;;;2.22;100.00
72110;BME280;59983;52.010;5.420;2023-03-15T01:10:12;101233.22;;;2.18;100.00
72110;BME280;59983;52.010;5.420;2023-03-15T01:12:39;101237.25;;;2.15;100.00
72110;BME280;59983;52.010;5.420;2023-03-15T01:15:07;101252.00;;;2.13;100.00
72110;BME280;59983;52.010;5.420;2023-03-15T01:17:34;101254.41;;;2.09;100.00
72110;BME280;59983;52.010;5.420;2023-03-15T01:20:01;101259.81;;;2.04;100.00
72110;BME280;59983;52.010;5.420;2023-03-15T01:22:27;101267.84;;;1.99;100.00
72110;BME280;59983;52.010;5.420;2023-03-15T01:24:54;101265.16;;;1.99;100.00
72110;BME280;59983;52.010;5.420;2023-03-15T01:27:20;101267.31;;;1.97;100.00
72110;BME280;59983;52.010;5.420;2023-03-15T01:29:47;101279.09;;;1.96;100.00
72110;BME280;59983;52.010;5.420;2023-03-15T01:32:13;101265.72;;;1.96;100.00
72110;BME280;59983;52.010;5.420;2023-03-15T01:34:40;101273.44;;;2.03;100.00
72110;BME280;59983;52.010;5.420;2023-03-15T01:37:09;101266.97;;;2.09;100.00
72110;BME280;59983;52.010;5.420;2023-03-15T01:39:40;101279.25;;;2.15;100.00
72110;BME280;59983;52.010;5.420;2023-03-15T01:42:08;101283.50;;;2.21;100.00
72110;BME280;59983;52.010;5.420;2023-03-15T01:44:53;101285.56;;;2.34;100.00
72110;BME280;59983;52.010;5.420;2023-03-15T01:47:20;101287.34;;;2.44;100.00
72110;BME280;59983;52.010;5.420;2023-03-15T01:49:53;101296.97;;;2.45;100.00
72110;BME280;59983;52.010;5.420;2023-03-15T01:52:24;101288.16;;;2.44;100.00
72110;BME280;59983;52.010;5.420;2023-03-15T01:55:00;101297.97;;;2.54;100.00
72110;BME280;59983;52.010;5.420;2023-03-15T01:57:33;101300.38;;;2.55;100.00
72110;BME280;59983;52.010;5.420;2023-03-15T02:00:07;101300.13;;;2.57;100.00
72110;BME280;59983;52.010;5.420;2023-03-15T02:02:49;101292.13;;;2.52;100.00
72110;BME280;59983;52.010;5.420;2023-03-15T02:05:19;101286.78;;;2.47;100.00
72110;BME280;59983;52.010;5.420;2023-03-15T02:07:47;101287.31;;;2.49;100.00
72110;BME280;59983;52.010;5.420;2023-03-15T02:10:26;101302.59;;;2.48;100.00
72110;BME280;59983;52.010;5.420;2023-03-15T02:12:54;101296.69;;;2.46;100.00
72110;BME280;59983;52.010;5.420;2023-03-15T02:15:21;101296.19;;;2.44;100.00
72110;BME280;59983;52.010;5.420;2023-03-15T02:17:48;101295.38;;;2.44;100.00
72110;BME280;59983;52.010;5.420;2023-03-15T02:20:40;101308.47;;;2.45;100.00
72110;BME280;59983;52.010;5.420;2023-03-15T02:23:14;101305.81;;;2.45;100.00
72110;BME280;59983;52.010;5.420;2023-03-15T02:28:17;101320.31;;;2.39;100.00
72110;BME280;59983;52.010;5.420;2023-03-15T02:30:45;101327.56;;;2.39;100.00
72110;BME280;59983;52.010;5.420;2023-03-15T02:33:45;101321.44;;;2.33;100.00
72110;BME280;59983;52.010;5.420;2023-03-15T02:36:24;101327.28;;;2.35;100.00
72110;BME280;59983;52.010;5.420;2023-03-15T02:38:51;101329.97;;;2.35;100.00
72110;BME280;59983;52.010;5.420;2023-03-15T02:43:58;101337.50;;;2.33;100.00
72110;BME280;59983;52.010;5.420;2023-03-15T02:46:27;101343.34;;;2.35;100.00
72110;BME280;59983;52.010;5.420;2023-03-15T02:48:54;101344.72;;;2.33;100.00
72110;BME280;59983;52.010;5.420;2023-03-15T02:51:23;101350.59;;;2.30;100.00
72110;BME280;59983;52.010;5.420;2023-03-15T02:53:50;101352.25;;;2.25;100.00
72110;BME280;59983;52.010;5.420;2023-03-15T02:56:16;101349.59;;;2.20;100.00
72110;BME280;59983;52.010;5.420;2023-03-15T02:58:43;101353.31;;;2.24;100.00
72110;BME280;59983;52.010;5.420;2023-03-15T03:01:14;101370.19;;;2.25;100.00
72110;BME280;59983;52.010;5.420;2023-03-15T03:03:42;101377.13;;;2.26;100.00
72110;BME280;59983;52.010;5.420;2023-03-15T03:06:10;101376.06;;;2.27;100.00
72110;BME280;59983;52.010;5.420;2023-03-15T03:08:37;101380.59;;;2.26;100.00
72110;BME280;59983;52.010;5.420;2023-03-15T03:11:05;101384.59;;;2.29;100.00
72110;BME280;59983;52.010;5.420;2023-03-15T03:13:31;101389.69;;;2.31;100.00
72110;BME280;59983;52.010;5.420;2023-03-15T03:15:58;101388.63;;;2.32;100.00
72110;BME280;59983;52.010;5.420;2023-03-15T03:18:26;101391.03;;;2.28;100.00
72110;BME280;59983;52.010;5.420;2023-03-15T03:20:54;101398.53;;;2.31;100.00
72110;BME280;59983;52.010;5.420;2023-03-15T03:23:23;101401.44;;;2.35;100.00
72110;BME280;59983;52.010;5.420;2023-03-15T03:25:55;101398.22;;;2.38;100.00
72110;BME280;59983;52.010;5.420;2023-03-15T03:28:24;101409.97;;;2.42;100.00
72110;BME280;59983;52.010;5.420;2023-03-15T03:30:52;101416.94;;;2.43;100.00
72110;BME280;59983;52.010;5.420;2023-03-15T03:33:20;101411.59;;;2.38;100.00
72110;BME280;59983;52.010;5.420;2023-03-15T03:35:48;101410.53;;;2.39;100.00
72110;BME280;59983;52.010;5.420;2023-03-15T03:38:15;101416.69;;;2.39;100.00
72110;BME280;59983;52.010;5.420;2023-03-15T03:40:41;101423.31;;;2.47;100.00
72110;BME280;59983;52.010;5.420;2023-03-15T03:43:08;101426.84;;;2.47;100.00
72110;BME280;59983;52.010;5.420;2023-03-15T03:45:34;101428.97;;;2.45;100.00
72110;BME280;59983;52.010;5.420;2023-03-15T03:48:01;101432.19;;;2.42;100.00
72110;BME280;59983;52.010;5.420;2023-03-15T03:50:27;101432.47;;;2.41;100.00
72110;BME280;59983;52.010;5.420;2023-03-15T03:52:54;101449.63;;;2.40;100.00
72110;BME280;59983;52.010;5.420;2023-03-15T03:55:20;101453.09;;;2.40;100.00
72110;BME280;59983;52.010;5.420;2023-03-15T03:57:50;101454.97;;;2.35;100.00
72110;BME280;59983;52.010;5.420;2023-03-15T04:00:19;101450.94;;;2.37;100.00
72110;BME280;59983;52.010;5.420;2023-03-15T04:02:45;101448.56;;;2.36;100.00
72110;BME280;59983;52.010;5.420;2023-03-15T04:05:12;101454.47;;;2.33;100.00
72110;BME280;59983;52.010;5.420;2023-03-15T04:07:39;101444.78;;;2.37;100.00
72110;BME280;59983;52.010;5.420;2023-03-15T04:10:07;101461.97;;;2.31;100.00
72110;BME280;59983;52.010;5.420;2023-03-15T04:12:33;101463.03;;;2.30;100.00
72110;BME280;59983;52.010;5.420;2023-03-15T04:15:00;101464.41;;;2.22;100.00
72110;BME280;59983;52.010;5.420;2023-03-15T04:17:27;101470.56;;;2.17;100.00
72110;BME280;59983;52.010;5.420;2023-03-15T04:19:53;101473.25;;;2.17;100.00
72110;BME280;59983;52.010;5.420;2023-03-15T04:22:19;101473.75;;;2.19;100.00
72110;BME280;59983;52.010;5.420;2023-03-15T04:24:46;101475.69;;;2.14;100.00
72110;BME280;59983;52.010;5.420;2023-03-15T04:27:15;101484.75;;;2.18;100.00
72110;BME280;59983;52.010;5.420;2023-03-15T04:29:42;101485.31;;;2.15;100.00
72110;BME280;59983;52.010;5.420;2023-03-15T04:32:09;101492.53;;;2.14;100.00
72110;BME280;59983;52.010;5.420;2023-03-15T04:34:36;101489.34;;;2.12;100.00
72110;BME280;59983;52.010;5.420;2023-03-15T04:37:05;101496.81;;;2.10;100.00
72110;BME280;59983;52.010;5.420;2023-03-15T04:39:32;101496.28;;;2.08;100.00
72110;BME280;59983;52.010;5.420;2023-03-15T04:41:58;101508.06;;;2.07;100.00
72110;BME280;59983;52.010;5.420;2023-03-15T04:44:25;101505.94;;;2.04;100.00
72110;BME280;59983;52.010;5.420;2023-03-15T04:46:53;101508.88;;;1.97;100.00
72110;BME280;59983;52.010;5.420;2023-03-15T04:49:20;101507.28;;;1.96;100.00
72110;BME280;59983;52.010;5.420;2023-03-15T04:51:47;101519.06;;;1.85;100.00
72110;BME280;59983;52.010;5.420;2023-03-15T04:54:13;101515.59;;;1.80;100.00
72110;BME280;59983;52.010;5.420;2023-03-15T04:56:40;101528.97;;;1.80;100.00
72110;BME280;59983;52.010;5.420;2023-03-15T04:59:07;101524.69;;;1.74;100.00
72110;BME280;59983;52.010;5.420;2023-03-15T05:01:36;101526.56;;;1.73;100.00
72110;BME280;59983;52.010;5.420;2023-03-15T05:04:02;101531.91;;;1.73;100.00
72110;BME280;59983;52.010;5.420;2023-03-15T05:06:29;101542.06;;;1.76;100.00
72110;BME280;59983;52.010;5.420;2023-03-15T05:08:56;101537.78;;;1.75;100.00
72110;BME280;59983;52.010;5.420;2023-03-15T05:11:22;101536.19;;;1.74;100.00
72110;BME280;59983;52.010;5.420;2023-03-15T05:13:49;101542.88;;;1.77;100.00
72110;BME280;59983;52.010;5.420;2023-03-15T05:16:16;101542.34;;;1.80;100.00
72110;BME280;59983;52.010;5.420;2023-03-15T05:18:42;101547.97;;;1.78;100.00
72110;BME280;59983;52.010;5.420;2023-03-15T05:21:11;101551.16;;;1.75;100.00
72110;BME280;59983;52.010;5.420;2023-03-15T05:23:38;101554.38;;;1.77;100.00
72110;BME280;59983;52.010;5.420;2023-03-15T05:26:05;101550.34;;;1.75;100.00
72110;BME280;59983;52.010;5.420;2023-03-15T05:28:32;101553.84;;;1.75;100.00
72110;BME280;59983;52.010;5.420;2023-03-15T05:30:58;101556.25;;;1.72;100.00
72110;BME280;59983;52.010;5.420;2023-03-15T05:33:26;101565.63;;;1.69;100.00
72110;BME280;59983;52.010;5.420;2023-03-15T05:35:52;101565.09;;;1.77;100.00
72110;BME280;59983;52.010;5.420;2023-03-15T05:38:21;101559.75;;;1.77;100.00
72110;BME280;59983;52.010;5.420;2023-03-15T05:40:53;101565.59;;;1.74;100.00
72110;BME280;59983;52.010;5.420;2023-03-15T05:43:20;101572.56;;;1.75;100.00
72110;BME280;59983;52.010;5.420;2023-03-15T05:45:47;101577.38;;;1.73;100.00
72110;BME280;59983;52.010;5.420;2023-03-15T05:48:14;101581.66;;;1.74;100.00
72110;BME280;59983;52.010;5.420;2023-03-15T05:50:42;101587.28;;;1.73;100.00
72110;BME280;59983;52.010;5.420;2023-03-15T05:53:08;101588.59;;;1.80;100.00
72110;BME280;59983;52.010;5.420;2023-03-15T05:55:35;101596.38;;;1.82;100.00
72110;BME280;59983;52.010;5.420;2023-03-15T05:58:02;101595.56;;;1.76;100.00
72110;BME280;59983;52.010;5.420;2023-03-15T06:00:29;101595.03;;;1.74;100.00
72110;BME280;59983;52.010;5.420;2023-03-15T06:02:56;101602.25;;;1.74;100.00
72110;BME280;59983;52.010;5.420;2023-03-15T06:05:22;101606.00;;;1.78;100.00
72110;BME280;59983;52.010;5.420;2023-03-15T06:07:49;101618.31;;;1.79;100.00
72110;BME280;59983;52.010;5.420;2023-03-15T06:10:15;101629.78;;;1.74;100.00
72110;BME280;59983;52.010;5.420;2023-03-15T06:12:42;101621.78;;;1.69;100.00
72110;BME280;59983;52.010;5.420;2023-03-15T06:15:10;101623.09;;;1.82;100.00
72110;BME280;59983;52.010;5.420;2023-03-15T06:17:37;101638.88;;;1.83;100.00
72110;BME280;59983;52.010;5.420;2023-03-15T06:20:03;101643.44;;;1.78;100.00
72110;BME280;59983;52.010;5.420;2023-03-15T06:22:30;101637.81;;;1.74;100.00
72110;BME280;59983;52.010;5.420;2023-03-15T06:24:57;101652.78;;;1.70;100.00
72110;BME280;59983;52.010;5.420;2023-03-15T06:27:23;101649.28;;;1.64;100.00
72110;BME280;59983;52.010;5.420;2023-03-15T06:29:50;101662.66;;;1.64;100.00
72110;BME280;59983;52.010;5.420;2023-03-15T06:32:16;101664.00;;;1.62;100.00
72110;BME280;59983;52.010;5.420;2023-03-15T06:34:43;101671.75;;;1.63;100.00
72110;BME280;59983;52.010;5.420;2023-03-15T06:37:09;101684.06;;;1.59;100.00
72110;BME280;59983;52.010;5.420;2023-03-15T06:39:43;101681.13;;;1.61;100.00
72110;BME280;59983;52.010;5.420;2023-03-15T06:42:10;101683.00;;;1.60;100.00
72110;BME280;59983;52.010;5.420;2023-03-15T06:44:39;101680.31;;;1.65;100.00
72110;BME280;59983;52.010;5.420;2023-03-15T06:47:07;101689.44;;;1.69;100.00
72110;BME280;59983;52.010;5.420;2023-03-15T06:49:34;101687.03;;;1.78;100.00
72110;BME280;59983;52.010;5.420;2023-03-15T06:52:01;101686.25;;;1.88;100.00
72110;BME280;59983;52.010;5.420;2023-03-15T06:54:28;101692.41;;;1.98;100.00
72110;BME280;59983;52.010;5.420;2023-03-15T06:56:55;101703.13;;;2.09;100.00
72110;BME280;59983;52.010;5.420;2023-03-15T06:59:22;101704.44;;;2.11;100.00
72110;BME280;59983;52.010;5.420;2023-03-15T07:01:49;101703.13;;;2.29;100.00
72110;BME280;59983;52.010;5.420;2023-03-15T07:04:16;101710.63;;;2.37;100.00
72110;BME280;59983;52.010;5.420;2023-03-15T07:06:42;101717.59;;;2.43;100.00
72110;BME280;59983;52.010;5.420;2023-03-15T07:09:09;101723.19;;;2.47;100.00
72110;BME280;59983;52.010;5.420;2023-03-15T07:11:35;101729.63;;;2.56;100.00
72110;BME280;59983;52.010;5.420;2023-03-15T07:14:02;101735.50;;;2.68;100.00
72110;BME280;59983;52.010;5.420;2023-03-15T07:16:28;101729.63;;;2.76;100.00
72110;BME280;59983;52.010;5.420;2023-03-15T07:18:55;101741.38;;;2.80;100.00
72110;BME280;59983;52.010;5.420;2023-03-15T07:21:25;101737.38;;;2.83;100.00
72110;BME280;59983;52.010;5.420;2023-03-15T07:23:52;101748.06;;;2.88;100.00
72110;BME280;59983;52.010;5.420;2023-03-15T07:26:18;101752.88;;;2.91;100.00
72110;BME280;59983;52.010;5.420;2023-03-15T07:28:45;101759.31;;;2.90;100.00
72110;BME280;59983;52.010;5.420;2023-03-15T07:31:12;101752.09;;;2.96;100.00
72110;BME280;59983;52.010;5.420;2023-03-15T07:33:39;101753.38;;;3.08;100.00
72110;BME280;59983;52.010;5.420;2023-03-15T07:36:06;101758.97;;;3.22;100.00
72110;BME280;59983;52.010;5.420;2023-03-15T07:38:34;101760.56;;;3.33;100.00
72110;BME280;59983;52.010;5.420;2023-03-15T07:41:03;101764.28;;;3.42;100.00
72110;BME280;59983;52.010;5.420;2023-03-15T07:43:30;101770.66;;;3.57;100.00
72110;BME280;59983;52.010;5.420;2023-03-15T07:45:57;101780.00;;;3.69;100.00
72110;BME280;59983;52.010;5.420;2023-03-15T07:48:24;101777.25;;;3.80;100.00
72110;BME280;59983;52.010;5.420;2023-03-15T07:50:50;101773.81;;;3.69;100.00
72110;BME280;59983;52.010;5.420;2023-03-15T07:53:17;101779.47;;;3.73;100.00
72110;BME280;59983;52.010;5.420;2023-03-15T07:55:46;101789.56;;;3.86;100.00
72110;BME280;59983;52.010;5.420;2023-03-15T07:58:13;101796.19;;;4.04;100.00
72110;BME280;59983;52.010;5.420;2023-03-15T08:00:40;101796.41;;;4.17;100.00
72110;BME280;59983;52.010;5.420;2023-03-15T08:03:07;101798.50;;;4.25;100.00
72110;BME280;59983;52.010;5.420;2023-03-15T08:05:34;101808.44;;;4.25;100.00
72110;BME280;59983;52.010;5.420;2023-03-15T08:08:00;101808.06;;;4.42;100.00
72110;BME280;59983;52.010;5.420;2023-03-15T08:10:27;101810.91;;;4.55;100.00
72110;BME280;59983;52.010;5.420;2023-03-15T08:12:53;101820.44;;;4.72;100.00
72110;BME280;59983;52.010;5.420;2023-03-15T08:15:20;101825.16;;;4.85;100.00
72110;BME280;59983;52.010;5.420;2023-03-15T08:17:47;101825.63;;;4.97;100.00
72110;BME280;59983;52.010;5.420;2023-03-15T08:20:15;101831.47;;;5.04;100.00
72110;BME280;59983;52.010;5.420;2023-03-15T08:22:47;101828.63;;;5.20;100.00
72110;BME280;59983;52.010;5.420;2023-03-15T08:25:16;101833.75;;;5.21;100.00
72110;BME280;59983;52.010;5.420;2023-03-15T08:27:43;101832.09;;;5.20;100.00
72110;BME280;59983;52.010;5.420;2023-03-15T08:30:10;101840.00;;;5.40;100.00
72110;BME280;59983;52.010;5.420;2023-03-15T08:32:38;101845.16;;;5.61;100.00
72110;BME280;59983;52.010;5.420;2023-03-15T08:35:06;101833.66;;;5.74;100.00
72110;BME280;59983;52.010;5.420;2023-03-15T08:37:33;101840.28;;;5.87;100.00
72110;BME280;59983;52.010;5.420;2023-03-15T08:39:59;101837.97;;;5.99;100.00
72110;BME280;59983;52.010;5.420;2023-03-15T08:42:30;101842.59;;;6.17;100.00
72110;BME280;59983;52.010;5.420;2023-03-15T08:44:57;101850.41;;;6.19;100.00
72110;BME280;59983;52.010;5.420;2023-03-15T08:47:25;101857.59;;;6.23;100.00
72110;BME280;59983;52.010;5.420;2023-03-15T08:49:51;101855.41;;;6.25;100.00
72110;BME280;59983;52.010;5.420;2023-03-15T08:52:19;101861.88;;;6.24;100.00
72110;BME280;59983;52.010;5.420;2023-03-15T08:54:47;101861.75;;;6.35;100.00
72110;BME280;59983;52.010;5.420;2023-03-15T08:57:14;101864.38;;;6.40;99.50
72110;BME280;59983;52.010;5.420;2023-03-15T08:59:40;101865.31;;;6.49;100.00
72110;BME280;59983;52.010;5.420;2023-03-15T09:02:08;101860.41;;;6.70;100.00
72110;BME280;59983;52.010;5.420;2023-03-15T09:04:37;101866.19;;;6.63;99.13
72110;BME280;59983;52.010;5.420;2023-03-15T09:07:04;101862.31;;;6.69;99.52
72110;BME280;59983;52.010;5.420;2023-03-15T09:09:31;101866.41;;;6.67;98.46
72110;BME280;59983;52.010;5.420;2023-03-15T09:11:58;101874.78;;;6.65;98.03
72110;BME280;59983;52.010;5.420;2023-03-15T09:14:25;101874.44;;;6.72;99.15
72110;BME280;59983;52.010;5.420;2023-03-15T09:16:51;101866.88;;;6.88;97.93
72110;BME280;59983;52.010;5.420;2023-03-15T09:19:18;101876.69;;;6.97;97.65
72110;BME280;59983;52.010;5.420;2023-03-15T09:21:44;101871.72;;;7.04;97.59
72110;BME280;59983;52.010;5.420;2023-03-15T09:24:12;101868.47;;;7.07;93.51
72110;BME280;59983;52.010;5.420;2023-03-15T09:26:39;101874.81;;;6.98;94.13
72110;BME280;59983;52.010;5.420;2023-03-15T09:29:06;101870.22;;;6.98;96.17
72110;BME280;59983;52.010;5.420;2023-03-15T09:31:34;101865.91;;;6.97;97.07
72110;BME280;59983;52.010;5.420;2023-03-15T09:34:01;101866.38;;;7.18;97.28
72110;BME280;59983;52.010;5.420;2023-03-15T09:36:28;101863.69;;;7.32;96.27
72110;BME280;59983;52.010;5.420;2023-03-15T09:38:55;101875.31;;;7.46;94.10
72110;BME280;59983;52.010;5.420;2023-03-15T09:41:37;101871.03;;;7.59;95.77
72110;BME280;59983;52.010;5.420;2023-03-15T09:49:48;101877.75;;;7.75;91.81
72110;BME280;59983;52.010;5.420;2023-03-15T09:52:25;101876.84;;;7.52;92.20
72110;BME280;59983;52.010;5.420;2023-03-15T09:54:59;101877.75;;;7.61;93.89
72110;BME280;59983;52.010;5.420;2023-03-15T09:57:36;101878.44;;;7.67;92.50
72110;BME280;59983;52.010;5.420;2023-03-15T10:00:12;101889.53;;;7.65;93.04
72110;BME280;59983;52.010;5.420;2023-03-15T10:02:45;101884.25;;;7.74;94.28
72110;BME280;59983;52.010;5.420;2023-03-15T10:05:18;101883.63;;;7.77;91.44
72110;BME280;59983;52.010;5.420;2023-03-15T10:07:46;101886.66;;;7.62;87.10
72110;BME280;59983;52.010;5.420;2023-03-15T10:10:16;101887.75;;;7.61;90.28
72110;BME280;59983;52.010;5.420;2023-03-15T10:12:55;101891.97;;;7.81;90.30
72110;BME280;59983;52.010;5.420;2023-03-15T10:15:38;101885.97;;;7.70;86.77
72110;BME280;59983;52.010;5.420;2023-03-15T10:20:55;101881.75;;;7.91;85.07
72110;BME280;59983;52.010;5.420;2023-03-15T10:23:35;101891.94;;;7.94;86.59
72110;BME280;59983;52.010;5.420;2023-03-15T10:26:06;101885.47;;;7.95;83.25
72110;BME280;59983;52.010;5.420;2023-03-15T10:28:35;101898.25;;;8.04;83.42
72110;BME280;59983;52.010;5.420;2023-03-15T10:31:15;101891.66;;;7.96;81.52
72110;BME280;59983;52.010;5.420;2023-03-15T10:33:54;101896.16;;;7.87;80.26
72110;BME280;59983;52.010;5.420;2023-03-15T10:36:23;101894.34;;;7.82;76.99
72110;BME280;59983;52.010;5.420;2023-03-15T10:38:51;101893.75;;;7.85;78.27
72110;BME280;59983;52.010;5.420;2023-03-15T10:44:05;101897.06;;;7.82;81.55
72110;BME280;59983;52.010;5.420;2023-03-15T10:46:32;101905.56;;;7.89;78.23
72110;BME280;59983;52.010;5.420;2023-03-15T10:51:41;101904.47;;;7.90;77.44
72110;BME280;59983;52.010;5.420;2023-03-15T10:54:22;101914.34;;;7.95;75.01
72110;BME280;59983;52.010;5.420;2023-03-15T10:59:24;101914.75;;;8.02;71.49
72110;BME280;59983;52.010;5.420;2023-03-15T11:01:52;101923.88;;;8.06;72.09
72110;BME280;59983;52.010;5.420;2023-03-15T11:04:24;101922.47;;;8.09;72.65
72110;BME280;59983;52.010;5.420;2023-03-15T11:07:00;101916.97;;;8.14;72.79
72110;BME280;59983;52.010;5.420;2023-03-15T11:09:42;101920.03;;;8.21;68.35
72110;BME280;59983;52.010;5.420;2023-03-15T11:12:15;101927.97;;;8.04;69.34
72110;BME280;59983;52.010;5.420;2023-03-15T11:14:49;101932.97;;;8.10;69.04
72110;BME280;59983;52.010;5.420;2023-03-15T11:17:19;101941.69;;;8.07;68.44
72110;BME280;59983;52.010;5.420;2023-03-15T11:19:58;101935.66;;;8.10;69.20
72110;BME280;59983;52.010;5.420;2023-03-15T11:22:25;101939.47;;;8.23;65.61
72110;BME280;59983;52.010;5.420;2023-03-15T11:24:52;101941.38;;;8.36;64.86
72110;BME280;59983;52.010;5.420;2023-03-15T11:27:21;101932.47;;;8.49;65.87
72110;BME280;59983;52.010;5.420;2023-03-15T11:29:51;101947.97;;;8.58;65.39
72110;BME280;59983;52.010;5.420;2023-03-15T11:32:28;101954.28;;;8.53;62.01
72110;BME280;59983;52.010;5.420;2023-03-15T11:34:59;101936.56;;;8.47;63.92
72110;BME280;59983;52.010;5.420;2023-03-15T11:37:33;101943.72;;;8.65;63.63
72110;BME280;59983;52.010;5.420;2023-03-15T11:50:54;101934.22;;;9.35;60.75
72110;BME280;59983;52.010;5.420;2023-03-15T11:53:22;101930.19;;;9.24;60.18
72110;BME280;59983;52.010;5.420;2023-03-15T11:55:51;101923.75;;;9.11;58.44
72110;BME280;59983;52.010;5.420;2023-03-15T11:58:34;101932.72;;;9.20;59.41
72110;BME280;59983;52.010;5.420;2023-03-15T12:01:10;101927.78;;;9.22;60.51
72110;BME280;59983;52.010;5.420;2023-03-15T12:03:49;101920.41;;;9.14;59.70
72110;BME280;59983;52.010;5.420;2023-03-15T12:08:50;101921.44;;;9.27;59.13
72110;BME280;59983;52.010;5.420;2023-03-15T12:14:20;101911.19;;;9.15;55.43
72110;BME280;59983;52.010;5.420;2023-03-15T12:16:48;101919.78;;;9.17;55.58
72110;BME280;59983;52.010;5.420;2023-03-15T12:19:16;101929.81;;;9.17;54.80
72110;BME280;59983;52.010;5.420;2023-03-15T12:21:55;101928.59;;;9.23;56.53
72110;BME280;59983;52.010;5.420;2023-03-15T12:24:26;101931.59;;;9.21;53.42
72110;BME280;59983;52.010;5.420;2023-03-15T12:27:00;101927.69;;;9.36;55.94
72110;BME280;59983;52.010;5.420;2023-03-15T12:29:29;101934.47;;;9.47;53.78
72110;BME280;59983;52.010;5.420;2023-03-15T12:37:07;101930.34;;;9.81;55.34
72110;BME280;59983;52.010;5.420;2023-03-15T12:39:43;101940.16;;;9.68;53.93
72110;BME280;59983;52.010;5.420;2023-03-15T12:42:12;101922.94;;;9.64;55.69
72110;BME280;59983;52.010;5.420;2023-03-15T12:44:41;101921.72;;;9.79;51.85
72110;BME280;59983;52.010;5.420;2023-03-15T12:47:10;101924.38;;;9.70;53.89
72110;BME280;59983;52.010;5.420;2023-03-15T12:49:40;101922.47;;;9.71;54.66
72110;BME280;59983;52.010;5.420;2023-03-15T12:57:11;101935.00;;;10.37;53.26
72110;BME280;59983;52.010;5.420;2023-03-15T12:59:44;101933.38;;;10.28;54.68
72110;BME280;59983;52.010;5.420;2023-03-15T13:07:55;101932.63;;;10.44;50.97
72110;BME280;59983;52.010;5.420;2023-03-15T13:18:22;101923.34;;;10.37;49.35
72110;BME280;59983;52.010;5.420;2023-03-15T13:23:32;101909.47;;;10.47;49.41
72110;BME280;59983;52.010;5.420;2023-03-15T13:26:16;101908.38;;;10.48;50.47
72110;BME280;59983;52.010;5.420;2023-03-15T13:28:49;101904.22;;;10.68;48.78
72110;BME280;59983;52.010;5.420;2023-03-15T13:31:21;101900.25;;;10.74;47.90
72110;BME280;59983;52.010;5.420;2023-03-15T13:33:51;101907.72;;;10.86;49.42
72110;BME280;59983;52.010;5.420;2023-03-15T13:36:26;101915.69;;;11.17;50.26
72110;BME280;59983;52.010;5.420;2023-03-15T13:38:55;101928.94;;;11.18;49.77
72110;BME280;59983;52.010;5.420;2023-03-15T13:41:26;101916.50;;;11.17;48.62
72110;BME280;59983;52.010;5.420;2023-03-15T13:43:56;101919.59;;;11.54;48.52
72110;BME280;59983;52.010;5.420;2023-03-15T13:46:25;101916.63;;;11.85;45.88
72110;BME280;59983;52.010;5.420;2023-03-15T13:48:53;101924.63;;;11.81;47.74
72110;BME280;59983;52.010;5.420;2023-03-15T13:51:37;101921.75;;;11.86;47.03
72110;BME280;59983;52.010;5.420;2023-03-15T13:56:52;101930.59;;;12.34;46.79
72110;BME280;59983;52.010;5.420;2023-03-15T13:59:27;101931.03;;;12.65;45.11
72110;BME280;59983;52.010;5.420;2023-03-15T14:01:55;101933.56;;;12.91;44.10
72110;BME280;59983;52.010;5.420;2023-03-15T14:04:23;101929.19;;;13.11;42.86
72110;BME280;59983;52.010;5.420;2023-03-15T14:07:03;101926.25;;;13.37;43.48
72110;BME280;59983;52.010;5.420;2023-03-15T14:09:34;101930.56;;;13.50;40.90